createdAt,value
2023-05-10T00:01:12.349Z,99161.91
2023-05-10T00:03:39.019Z,99167.09
2023-05-10T00:06:09.429Z,99169.19
2023-05-10T00:08:35.941Z,99173.09
2023-05-10T00:11:02.398Z,99163.16
2023-05-10T00:13:28.893Z,99173.66
2023-05-10T00:15:55.425Z,99175.59
2023-05-10T00:18:21.891Z,99168.91
2023-05-10T00:20:49.591Z,99171.00
2023-05-10T00:23:16.159Z,99173.13
2023-05-10T00:25:42.734Z,99172.72
2023-05-10T00:28:09.235Z,99176.19
2023-05-10T00:30:37.648Z,99174.66
2023-05-10T00:33:04.341Z,99171.59
2023-05-10T00:35:30.974Z,99172.25
2023-05-10T00:37:57.405Z,99176.50
2023-05-10T00:40:23.975Z,99179.16
2023-05-10T00:42:55.278Z,99180.13
2023-05-10T00:45:21.804Z,99170.63
2023-05-10T00:47:48.411Z,99186.97
2023-05-10T00:50:15.949Z,99197.31
2023-05-10T00:52:43.821Z,99186.81
2023-05-10T00:55:11.651Z,99185.44
2023-05-10T00:57:38.066Z,99180.81
2023-05-10T01:00:07.384Z,99186.97
2023-05-10T01:02:35.404Z,99192.13
2023-05-10T01:05:04.443Z,99184.72
2023-05-10T01:07:30.920Z,99189.06
2023-05-10T01:09:57.670Z,99179.41
2023-05-10T01:12:26.595Z,99188.91
2023-05-10T01:14:53.163Z,99186.69
2023-05-10T01:17:20.168Z,99184.72
2023-05-10T01:19:46.867Z,99184.44
2023-05-10T01:22:46.250Z,99188.38
2023-05-10T01:25:42.621Z,99198.84
2023-05-10T01:28:27.988Z,99196.19
2023-05-10T01:31:22.691Z,99201.78
2023-05-10T01:34:08.647Z,99198.28
2023-05-10T01:36:42.863Z,99204.44
2023-05-10T01:39:22.275Z,99200.81
2023-05-10T01:41:55.117Z,99202.75
2023-05-10T01:44:28.677Z,99201.78
2023-05-10T01:47:06.030Z,99202.47
2023-05-10T01:49:36.495Z,99207.09
2023-05-10T01:52:15.292Z,99204.31
2023-05-10T01:54:46.997Z,99201.66
2023-05-10T01:57:14.982Z,99201.34
2023-05-10T01:59:44.423Z,99202.34
2023-05-10T02:02:12.895Z,99206.66
2023-05-10T02:04:40.691Z,99212.84
2023-05-10T02:07:08.014Z,99213.97
2023-05-10T02:09:35.613Z,99214.78
2023-05-10T02:12:03.852Z,99219.13
2023-05-10T02:14:33.592Z,99221.06
2023-05-10T02:17:00.954Z,99227.50
2023-05-10T02:19:28.976Z,99225.84
2023-05-10T02:21:58.252Z,99227.78
2023-05-10T02:24:25.327Z,99222.88
2023-05-10T02:26:54.903Z,99221.75
2023-05-10T02:29:21.938Z,99233.94
2023-05-10T02:31:49.152Z,99226.25
2023-05-10T02:34:15.862Z,99225.84
2023-05-10T02:36:43.052Z,99223.44
2023-05-10T02:39:13.604Z,99222.19
2023-05-10T02:41:42.533Z,99219.97
2023-05-10T02:44:10.533Z,99233.38
2023-05-10T02:46:38.478Z,99228.22
2023-05-10T02:49:05.182Z,99218.41
2023-05-10T02:51:34.612Z,99223.72
2023-05-10T02:54:21.670Z,99226.13
2023-05-10T02:56:52.173Z,99230.56
2023-05-10T02:59:18.675Z,99214.94
2023-05-10T03:01:45.188Z,99226.38
2023-05-10T03:04:12.958Z,99223.72
2023-05-10T03:06:39.675Z,99219.41
2023-05-10T03:09:06.379Z,99221.06
2023-05-10T03:12:03.086Z,99227.50
2023-05-10T03:14:55.049Z,99220.09
2023-05-10T03:17:36.551Z,99235.47
2023-05-10T03:20:08.556Z,99232.94
2023-05-10T03:22:39.543Z,99236.03
2023-05-10T03:25:07.851Z,99230.72
2023-05-10T03:27:36.798Z,99243.56
2023-05-10T03:30:04.174Z,99235.47
2023-05-10T03:32:35.258Z,99241.63
2023-05-10T03:35:03.224Z,99231.97
2023-05-10T03:37:29.909Z,99243.44
2023-05-10T03:39:56.456Z,99227.06
2023-05-10T03:42:26.187Z,99236.88
2023-05-10T03:44:52.685Z,99234.78
2023-05-10T03:47:19.146Z,99231.13
2023-05-10T03:49:45.886Z,99223.16
2023-05-10T03:52:12.957Z,99217.56
2023-05-10T03:54:39.436Z,99238.25
2023-05-10T03:57:06.079Z,99218.41
2023-05-10T03:59:32.963Z,99213.63
2023-05-10T04:01:59.594Z,99225.38
2023-05-10T04:04:26.175Z,99225.53
2023-05-10T04:06:52.616Z,99233.50
2023-05-10T04:09:22.787Z,99231.53
2023-05-10T04:11:49.240Z,99226.38
2023-05-10T04:14:15.718Z,99224.13
2023-05-10T04:16:42.315Z,99229.16
2023-05-10T04:19:08.802Z,99221.63
2023-05-10T04:21:35.315Z,99231.28
2023-05-10T04:24:01.813Z,99242.03
2023-05-10T04:26:28.628Z,99232.81
2023-05-10T04:28:55.369Z,99234.91
2023-05-10T04:31:22.512Z,99245.53
2023-05-10T04:33:49.035Z,99257.69
2023-05-10T04:36:15.532Z,99254.16
2023-05-10T04:38:42.168Z,99264.41
2023-05-10T04:41:10.017Z,99254.31
2023-05-10T04:43:37.107Z,99255.47
2023-05-10T04:46:04.153Z,99259.38
2023-05-10T04:48:30.768Z,99268.47
2023-05-10T04:50:57.446Z,99275.06
2023-05-10T04:53:23.937Z,99269.75
2023-05-10T04:55:50.543Z,99281.63
2023-05-10T04:58:17.221Z,99293.94
2023-05-10T05:00:43.702Z,99298.97
2023-05-10T05:03:10.682Z,99293.53
2023-05-10T05:05:37.443Z,99299.28
2023-05-10T05:08:04.157Z,99300.09
2023-05-10T05:10:30.813Z,99303.47
2023-05-10T05:12:57.290Z,99306.69
2023-05-10T05:15:23.774Z,99305.84
2023-05-10T05:17:50.240Z,99306.97
2023-05-10T05:20:17.259Z,99308.66
2023-05-10T05:22:43.876Z,99320.09
2023-05-10T05:25:10.282Z,99315.66
2023-05-10T05:27:36.756Z,99316.75
2023-05-10T05:30:03.268Z,99320.28
2023-05-10T05:32:29.733Z,99321.81
2023-05-10T05:34:56.341Z,99316.34
2023-05-10T05:37:23.433Z,99313.41
2023-05-10T05:39:49.890Z,99314.94
2023-05-10T05:42:18.457Z,99307.53
2023-05-10T05:44:45.288Z,99304.72
2023-05-10T05:47:11.728Z,99317.19
2023-05-10T05:49:38.170Z,99315.38
2023-05-10T05:52:05.170Z,99322.94
2023-05-10T05:54:32.340Z,99327.88
2023-05-10T05:57:01.208Z,99323.00
2023-05-10T05:59:28.084Z,99326.91
2023-05-10T06:01:55.503Z,99329.41
2023-05-10T06:04:24.685Z,99326.47
2023-05-10T06:06:51.109Z,99338.91
2023-05-10T06:09:17.608Z,99333.50
2023-05-10T06:11:44.073Z,99340.19
2023-05-10T06:14:10.832Z,99341.44
2023-05-10T06:16:37.377Z,99351.81
2023-05-10T06:19:04.154Z,99356.16
2023-05-10T06:21:30.994Z,99350.84
2023-05-10T06:23:57.481Z,99352.09
2023-05-10T06:26:24.063Z,99351.13
2023-05-10T06:28:50.503Z,99348.59
2023-05-10T06:31:17.094Z,99356.69
2023-05-10T06:33:43.630Z,99354.19
2023-05-10T06:36:10.111Z,99350.41
2023-05-10T06:38:36.578Z,99352.09
2023-05-10T06:41:03.042Z,99356.28
2023-05-10T06:43:29.765Z,99350.81
2023-05-10T06:45:56.823Z,99356.84
2023-05-10T06:48:23.483Z,99352.91
2023-05-10T06:50:49.987Z,99357.69
2023-05-10T06:53:16.381Z,99360.59
2023-05-10T06:55:42.850Z,99353.44
2023-05-10T06:58:09.446Z,99363.94
2023-05-10T07:00:36.156Z,99357.91
2023-05-10T07:03:02.838Z,99356.09
2023-05-10T07:05:30.276Z,99373.16
2023-05-10T07:07:58.370Z,99363.38
2023-05-10T07:10:24.822Z,99369.09
2023-05-10T07:12:51.329Z,99377.50
2023-05-10T07:15:18.196Z,99366.84
2023-05-10T07:17:46.094Z,99376.34
2023-05-10T07:20:13.169Z,99370.88
2023-05-10T07:22:39.593Z,99374.09
2023-05-10T07:25:06.728Z,99377.31
2023-05-10T07:27:33.535Z,99381.22
2023-05-10T07:30:00.198Z,99377.41
2023-05-10T07:32:26.808Z,99376.69
2023-05-10T07:34:53.316Z,99382.16
2023-05-10T07:37:19.912Z,99384.44
2023-05-10T07:39:46.410Z,99376.38
2023-05-10T07:42:12.791Z,99378.47
2023-05-10T07:44:39.220Z,99394.19
2023-05-10T07:47:05.737Z,99382.22
2023-05-10T07:49:32.256Z,99384.03
2023-05-10T07:51:58.720Z,99382.50
2023-05-10T07:54:25.137Z,99387.44
2023-05-10T07:56:52.192Z,99386.75
2023-05-10T07:59:18.888Z,99385.25
2023-05-10T08:01:45.780Z,99390.47
2023-05-10T08:04:12.618Z,99383.19
2023-05-10T08:06:39.168Z,99390.88
2023-05-10T08:09:05.714Z,99389.75
2023-05-10T08:11:33.702Z,99394.50
2023-05-10T08:14:01.340Z,99393.53
2023-05-10T08:16:28.368Z,99391.84
2023-05-10T08:18:56.163Z,99403.47
2023-05-10T08:21:22.668Z,99391.69
2023-05-10T08:23:49.829Z,99393.41
2023-05-10T08:26:16.270Z,99394.25
2023-05-10T08:28:42.681Z,99398.31
2023-05-10T08:31:09.180Z,99395.34
2023-05-10T08:33:35.701Z,99398.81
2023-05-10T08:36:02.143Z,99399.31
2023-05-10T08:38:28.661Z,99403.28
2023-05-10T08:40:57.888Z,99401.53
2023-05-10T08:43:27.846Z,99408.41
2023-05-10T08:45:56.015Z,99406.34
2023-05-10T08:48:24.632Z,99408.94
2023-05-10T08:50:53.575Z,99414.31
2023-05-10T08:53:20.132Z,99412.09
2023-05-10T08:55:47.157Z,99407.97
2023-05-10T08:58:13.663Z,99402.31
2023-05-10T09:00:40.333Z,99403.69
2023-05-10T09:03:07.253Z,99409.03
2023-05-10T09:05:33.713Z,99416.34
2023-05-10T09:08:01.508Z,99411.53
2023-05-10T09:10:28.891Z,99420.91
2023-05-10T09:12:59.256Z,99425.97
2023-05-10T09:15:26.203Z,99417.25
2023-05-10T09:17:52.790Z,99422.66
2023-05-10T09:20:20.276Z,99422.72
2023-05-10T09:22:46.856Z,99426.13
2023-05-10T09:25:15.755Z,99417.69
2023-05-10T09:27:46.087Z,99421.78
2023-05-10T09:30:17.626Z,99422.44
2023-05-10T09:32:46.141Z,99425.59
2023-05-10T09:35:18.428Z,99421.25
2023-05-10T09:37:48.600Z,99421.19
2023-05-10T09:40:16.294Z,99436.13
2023-05-10T09:42:55.277Z,99435.16
2023-05-10T09:45:23.342Z,99435.16
2023-05-10T09:47:49.957Z,99439.91
2023-05-10T09:50:16.431Z,99436.44
2023-05-10T09:53:01.958Z,99440.19
2023-05-10T09:55:40.698Z,99446.63
2023-05-10T09:58:11.128Z,99439.09
2023-05-10T10:00:39.693Z,99437.47
2023-05-10T10:03:06.887Z,99439.94
2023-05-10T10:05:35.117Z,99438.19
2023-05-10T10:08:04.660Z,99442.06
2023-05-10T10:10:32.645Z,99443.91
2023-05-10T10:12:59.238Z,99446.69
2023-05-10T10:15:25.905Z,99448.13
2023-05-10T10:17:53.401Z,99449.44
2023-05-10T10:20:21.575Z,99451.72
2023-05-10T10:22:48.408Z,99455.75
2023-05-10T10:25:16.857Z,99446.97
2023-05-10T10:28:00.543Z,99451.22
2023-05-10T10:30:35.836Z,99458.59
2023-05-10T10:33:27.227Z,99447.41
2023-05-10T10:35:55.540Z,99443.28
2023-05-10T10:38:22.824Z,99447.47
2023-05-10T10:40:49.672Z,99457.47
2023-05-10T10:43:26.911Z,99452.31
2023-05-10T10:46:13.944Z,99457.13
2023-05-10T10:48:41.615Z,99459.44
2023-05-10T10:51:10.090Z,99455.59
2023-05-10T10:53:39.947Z,99458.59
2023-05-10T10:56:08.383Z,99453.59
2023-05-10T10:58:35.248Z,99455.78
2023-05-10T11:01:20.590Z,99465.66
2023-05-10T11:04:16.274Z,99457.66
2023-05-10T11:06:43.442Z,99463.34
2023-05-10T11:09:12.403Z,99459.69
2023-05-10T11:11:56.274Z,99467.81
2023-05-10T11:14:26.092Z,99466.38
2023-05-10T11:16:52.689Z,99460.88
2023-05-10T11:19:20.926Z,99471.09
2023-05-10T11:21:52.104Z,99458.91
2023-05-10T11:24:20.652Z,99463.09
2023-05-10T11:26:47.199Z,99464.31
2023-05-10T11:29:14.506Z,99464.31
2023-05-10T11:31:48.117Z,99464.13
2023-05-10T11:34:28.253Z,99465.81
2023-05-10T11:36:56.900Z,99479.00
2023-05-10T11:39:27.792Z,99472.31
2023-05-10T11:41:54.232Z,99478.47
2023-05-10T11:44:20.719Z,99474.34
2023-05-10T11:46:47.153Z,99478.34
2023-05-10T11:49:14.245Z,99481.19
2023-05-10T11:51:40.831Z,99482.06
2023-05-10T11:54:10.253Z,99474.84
2023-05-10T11:56:38.364Z,99474.53
2023-05-10T11:59:04.891Z,99482.22
2023-05-10T12:01:31.618Z,99479.56
2023-05-10T12:04:01.835Z,99491.09
2023-05-10T12:06:29.940Z,99490.09
2023-05-10T12:08:56.334Z,99489.47
2023-05-10T12:11:26.088Z,99489.28
2023-05-10T12:13:52.625Z,99489.97
2023-05-10T12:16:21.554Z,99485.31
2023-05-10T12:18:52.566Z,99481.94
2023-05-10T12:21:21.365Z,99479.78
2023-05-10T12:23:50.748Z,99478.25
2023-05-10T12:26:17.241Z,99482.13
2023-05-10T12:28:43.853Z,99480.13
2023-05-10T12:31:10.341Z,99485.97
2023-05-10T12:33:44.125Z,99478.44
2023-05-10T12:36:11.672Z,99479.63
2023-05-10T12:38:45.560Z,99485.97
2023-05-10T12:41:13.907Z,99494.19
2023-05-10T12:43:40.933Z,99486.50
2023-05-10T12:46:12.059Z,99488.84
2023-05-10T12:48:39.890Z,99488.81
2023-05-10T12:51:09.554Z,99486.97
2023-05-10T12:53:36.672Z,99490.50
2023-05-10T12:56:03.213Z,99488.66
2023-05-10T12:58:35.658Z,99496.38
2023-05-10T13:01:02.864Z,99488.47
2023-05-10T13:03:29.531Z,99490.81
2023-05-10T13:05:55.974Z,99491.31
2023-05-10T13:08:22.666Z,99487.31
2023-05-10T13:10:49.376Z,99483.13
2023-05-10T13:13:16.380Z,99496.69
2023-05-10T13:15:42.840Z,99497.38
2023-05-10T13:18:09.342Z,99497.53
2023-05-10T13:20:35.878Z,99494.69
2023-05-10T13:23:03.488Z,99489.50
2023-05-10T13:25:30.005Z,99496.34
2023-05-10T13:27:56.418Z,99499.88
2023-05-10T13:30:23.082Z,99505.56
2023-05-10T13:32:49.625Z,99496.88
2023-05-10T13:35:16.395Z,99497.03
2023-05-10T13:37:42.840Z,99504.22
2023-05-10T13:40:09.798Z,99497.53
2023-05-10T13:42:36.191Z,99497.88
2023-05-10T13:45:02.730Z,99499.19
2023-05-10T13:47:29.333Z,99489.16
2023-05-10T13:49:56.099Z,99492.84
2023-05-10T13:52:22.827Z,99494.53
2023-05-10T13:54:49.290Z,99492.16
2023-05-10T13:57:17.575Z,99496.38
2023-05-10T13:59:43.968Z,99487.47
2023-05-10T14:02:11.659Z,99489.47
2023-05-10T14:04:38.621Z,99495.50
2023-05-10T14:07:05.074Z,99498.84
2023-05-10T14:09:32.192Z,99491.31
2023-05-10T14:11:59.726Z,99485.13
2023-05-10T14:14:26.233Z,99491.97
2023-05-10T14:16:52.887Z,99492.47
2023-05-10T14:19:19.418Z,99500.34
2023-05-10T14:21:45.882Z,99484.97
2023-05-10T14:24:12.860Z,99485.63
2023-05-10T14:26:39.311Z,99486.63
2023-05-10T14:29:05.728Z,99488.97
2023-05-10T14:31:32.557Z,99484.44
2023-05-10T14:34:00.045Z,99485.28
2023-05-10T14:36:26.716Z,99477.59
2023-05-10T14:38:53.283Z,99478.75
2023-05-10T14:41:19.721Z,99467.69
2023-05-10T14:43:46.104Z,99476.25
2023-05-10T14:46:12.745Z,99473.75
2023-05-10T14:48:39.257Z,99486.16
2023-05-10T14:51:05.807Z,99470.41
2023-05-10T14:53:32.254Z,99477.28
2023-05-10T14:55:58.816Z,99481.97
2023-05-10T14:58:25.249Z,99482.13
2023-05-10T15:00:52.201Z,99485.47
2023-05-10T15:03:19.167Z,99487.66
2023-05-10T15:05:46.102Z,99474.75
2023-05-10T15:08:13.391Z,99477.22
2023-05-10T15:10:40.498Z,99477.56
2023-05-10T15:13:06.978Z,99478.94
2023-05-10T15:15:33.586Z,99475.91
2023-05-10T15:18:00.136Z,99471.06
2023-05-10T15:20:26.729Z,99473.91
2023-05-10T15:22:53.195Z,99483.31
2023-05-10T15:25:19.690Z,99477.25
2023-05-10T15:27:46.224Z,99479.28
2023-05-10T15:30:13.122Z,99485.28
2023-05-10T15:32:40.909Z,99477.59
2023-05-10T15:35:08.792Z,99479.44
2023-05-10T15:37:35.399Z,99487.13
2023-05-10T15:40:04.713Z,99491.84
2023-05-10T15:42:32.527Z,99488.31
2023-05-10T15:44:59.132Z,99483.13
2023-05-10T15:47:26.988Z,99493.34
2023-05-10T15:49:53.549Z,99488.31
2023-05-10T15:52:21.502Z,99490.97
2023-05-10T15:54:47.956Z,99491.66
2023-05-10T15:57:14.438Z,99491.81
2023-05-10T15:59:40.945Z,99487.13
2023-05-10T16:02:08.633Z,99498.34
2023-05-10T16:04:35.148Z,99493.66
2023-05-10T16:07:01.561Z,99491.66
2023-05-10T16:09:28.063Z,99504.22
2023-05-10T16:11:54.789Z,99496.88
2023-05-10T16:14:22.891Z,99499.22
2023-05-10T16:16:49.517Z,99506.25
2023-05-10T16:19:16.242Z,99503.41
2023-05-10T16:21:42.744Z,99506.75
2023-05-10T16:24:09.202Z,99506.09
2023-05-10T16:26:40.664Z,99505.72
2023-05-10T16:29:08.365Z,99509.25
2023-05-10T16:31:35.104Z,99504.34
2023-05-10T16:34:01.731Z,99499.16
2023-05-10T16:36:29.494Z,99506.34
2023-05-10T16:38:56.615Z,99506.06
2023-05-10T16:41:23.039Z,99499.53
2023-05-10T16:43:50.007Z,99506.38
2023-05-10T16:46:16.575Z,99504.38
2023-05-10T16:48:43.026Z,99505.06
2023-05-10T16:51:09.504Z,99510.44
2023-05-10T16:53:36.281Z,99506.25
2023-05-10T16:56:03.108Z,99506.09
2023-05-10T16:58:29.617Z,99512.25
2023-05-10T17:00:56.126Z,99512.13
2023-05-10T17:03:22.772Z,99514.78
2023-05-10T17:05:49.372Z,99511.78
2023-05-10T17:08:16.097Z,99518.13
2023-05-10T17:10:42.758Z,99518.66
2023-05-10T17:13:10.407Z,99525.53
2023-05-10T17:15:38.407Z,99520.81
2023-05-10T17:18:05.408Z,99523.34
2023-05-10T17:20:31.906Z,99514.78
2023-05-10T17:22:58.417Z,99527.31
2023-05-10T17:25:24.891Z,99540.66
2023-05-10T17:27:51.566Z,99530.44
2023-05-10T17:30:22.470Z,99539.63
2023-05-10T17:32:49.155Z,99527.56
2023-05-10T17:35:16.312Z,99534.09
2023-05-10T17:37:43.966Z,99541.13
2023-05-10T17:40:11.241Z,99536.94
2023-05-10T17:42:37.683Z,99538.06
2023-05-10T17:45:04.244Z,99539.69
2023-05-10T17:47:31.392Z,99539.03
2023-05-10T17:49:57.806Z,99533.69
2023-05-10T17:52:24.258Z,99541.72
2023-05-10T17:54:51.127Z,99545.56
2023-05-10T17:57:17.539Z,99543.19
2023-05-10T17:59:44.000Z,99543.97
2023-05-10T18:02:10.458Z,99549.13
2023-05-10T18:04:39.701Z,99541.38
2023-05-10T18:07:06.709Z,99542.19
2023-05-10T18:09:34.192Z,99545.66
2023-05-10T18:12:03.764Z,99543.22
2023-05-10T18:14:39.792Z,99544.31
2023-05-10T18:17:08.006Z,99541.19
2023-05-10T18:19:34.609Z,99541.16
2023-05-10T18:22:01.023Z,99543.44
2023-05-10T18:24:38.288Z,99546.94
2023-05-10T18:27:06.629Z,99546.13
2023-05-10T18:29:33.044Z,99548.56
2023-05-10T18:31:59.633Z,99548.94
2023-05-10T18:34:26.126Z,99550.59
2023-05-10T18:36:52.858Z,99553.41
2023-05-10T18:39:19.380Z,99546.50
2023-05-10T18:41:45.927Z,99551.75
2023-05-10T18:44:12.370Z,99551.00
2023-05-10T18:46:39.101Z,99546.75
2023-05-10T18:49:06.401Z,99552.31
2023-05-10T18:51:32.900Z,99548.34
2023-05-10T18:53:59.425Z,99550.69
2023-05-10T18:56:25.985Z,99548.53
2023-05-10T18:58:52.642Z,99547.31
2023-05-10T19:01:19.246Z,99556.66
2023-05-10T19:03:45.732Z,99556.28
2023-05-10T19:06:12.153Z,99560.97
2023-05-10T19:08:38.600Z,99555.97
2023-05-10T19:11:05.077Z,99559.66
2023-05-10T19:13:31.476Z,99565.16
2023-05-10T19:16:05.364Z,99568.66
